EGNV/MME METAR and TAF weather

Enter ICAO airport designator
Station Type Date Time Source
EGNV METAR 2023/12/08 21:50 UTC NOAA

EGNV 082150Z 17012KT 9999 FEW024 07/05 Q0998


Station Type Date Time Source
EGNV Decoded METAR 2023/12/08 21:50 UTC NOAA

Tees-Side, United Kingdom (EGNV) 54-31N 001-25W
Dec 08, 2023 - 04:50 PM EST / 2023.12.08 2150 UTC
Wind: from the S (170 degrees) at 14 MPH (12 KT):0
Visibility: greater than 7 mile(s):0
Sky conditions: mostly clear
Temperature: 44 F (7 C)
Dew Point: 41 F (5 C)
Relative Humidity: 87%
Pressure (altimeter): 29.47 in. Hg (0998 hPa)
ob: EGNV 082150Z 17012KT 9999 FEW024 07/05 Q0998
cycle: 22

Station Type Date Time Source
EGNV TAF 2022/10/10 18:27 UTC NOAA

TAF TAF EGNV 101724Z 1018/1121 CNL

Example: see airport list